sensor_id;sensor_type;location;lat;lon;timestamp;P1;durP1;ratioP1;P2;durP2;ratioP2
6434;SDS011;3250;42.694;23.278;2022-12-18T00:02:11;7.07;;;4.60;;
6434;SDS011;3250;42.694;23.278;2022-12-18T00:04:37;5.73;;;3.97;;
6434;SDS011;3250;42.694;23.278;2022-12-18T00:07:03;5.60;;;4.20;;
6434;SDS011;3250;42.694;23.278;2022-12-18T00:09:28;6.23;;;3.80;;
6434;SDS011;3250;42.694;23.278;2022-12-18T00:11:54;6.87;;;4.57;;
6434;SDS011;3250;42.694;23.278;2022-12-18T00:14:19;6.27;;;4.57;;
6434;SDS011;3250;42.694;23.278;2022-12-18T00:16:45;8.30;;;5.00;;
6434;SDS011;3250;42.694;23.278;2022-12-18T00:19:12;7.60;;;4.90;;
6434;SDS011;3250;42.694;23.278;2022-12-18T00:21:38;5.67;;;4.43;;
6434;SDS011;3250;42.694;23.278;2022-12-18T00:24:07;8.05;;;5.15;;
6434;SDS011;3250;42.694;23.278;2022-12-18T00:26:33;9.27;;;5.33;;
6434;SDS011;3250;42.694;23.278;2022-12-18T00:29:01;8.20;;;5.18;;
6434;SDS011;3250;42.694;23.278;2022-12-18T00:31:35;8.15;;;5.00;;
6434;SDS011;3250;42.694;23.278;2022-12-18T00:34:01;6.33;;;4.37;;
6434;SDS011;3250;42.694;23.278;2022-12-18T00:36:27;7.00;;;4.90;;
6434;SDS011;3250;42.694;23.278;2022-12-18T00:38:55;7.97;;;4.23;;
6434;SDS011;3250;42.694;23.278;2022-12-18T00:41:23;7.00;;;4.72;;
6434;SDS011;3250;42.694;23.278;2022-12-18T00:44:09;7.10;;;4.95;;
6434;SDS011;3250;42.694;23.278;2022-12-18T00:46:37;7.13;;;4.85;;
6434;SDS011;3250;42.694;23.278;2022-12-18T00:49:02;7.33;;;4.70;;
6434;SDS011;3250;42.694;23.278;2022-12-18T00:51:28;9.52;;;5.82;;
6434;SDS011;3250;42.694;23.278;2022-12-18T00:53:54;8.57;;;5.57;;
6434;SDS011;3250;42.694;23.278;2022-12-18T00:56:19;6.87;;;5.10;;
6434;SDS011;3250;42.694;23.278;2022-12-18T00:58:48;6.80;;;5.18;;
6434;SDS011;3250;42.694;23.278;2022-12-18T01:01:13;7.43;;;5.97;;
6434;SDS011;3250;42.694;23.278;2022-12-18T01:03:39;11.77;;;6.10;;
6434;SDS011;3250;42.694;23.278;2022-12-18T01:06:05;9.17;;;5.70;;
6434;SDS011;3250;42.694;23.278;2022-12-18T01:08:32;7.38;;;5.43;;
6434;SDS011;3250;42.694;23.278;2022-12-18T01:10:57;6.68;;;4.45;;
6434;SDS011;3250;42.694;23.278;2022-12-18T01:13:23;8.07;;;5.43;;
6434;SDS011;3250;42.694;23.278;2022-12-18T01:15:49;7.50;;;5.30;;
6434;SDS011;3250;42.694;23.278;2022-12-18T01:18:15;9.68;;;5.65;;
6434;SDS011;3250;42.694;23.278;2022-12-18T01:20:40;9.82;;;5.82;;
6434;SDS011;3250;42.694;23.278;2022-12-18T01:23:06;9.23;;;5.93;;
6434;SDS011;3250;42.694;23.278;2022-12-18T01:25:31;9.63;;;6.13;;
6434;SDS011;3250;42.694;23.278;2022-12-18T01:27:58;8.13;;;5.80;;
6434;SDS011;3250;42.694;23.278;2022-12-18T01:30:23;9.50;;;6.07;;
6434;SDS011;3250;42.694;23.278;2022-12-18T01:32:49;9.47;;;6.07;;
6434;SDS011;3250;42.694;23.278;2022-12-18T01:35:14;9.20;;;5.80;;
6434;SDS011;3250;42.694;23.278;2022-12-18T01:37:40;10.77;;;6.10;;
6434;SDS011;3250;42.694;23.278;2022-12-18T01:40:05;9.60;;;6.43;;
6434;SDS011;3250;42.694;23.278;2022-12-18T01:42:31;8.30;;;6.00;;
6434;SDS011;3250;42.694;23.278;2022-12-18T01:47:44;7.27;;;4.63;;
6434;SDS011;3250;42.694;23.278;2022-12-18T01:50:14;8.10;;;4.73;;
6434;SDS011;3250;42.694;23.278;2022-12-18T01:52:42;7.60;;;5.20;;
6434;SDS011;3250;42.694;23.278;2022-12-18T01:55:11;9.95;;;5.93;;
6434;SDS011;3250;42.694;23.278;2022-12-18T01:57:38;8.32;;;5.40;;
6434;SDS011;3250;42.694;23.278;2022-12-18T02:00:12;8.95;;;5.65;;
6434;SDS011;3250;42.694;23.278;2022-12-18T02:02:40;10.43;;;6.38;;
6434;SDS011;3250;42.694;23.278;2022-12-18T02:05:07;10.45;;;6.68;;
6434;SDS011;3250;42.694;23.278;2022-12-18T02:10:45;9.77;;;5.63;;
6434;SDS011;3250;42.694;23.278;2022-12-18T02:13:19;6.47;;;4.67;;
6434;SDS011;3250;42.694;23.278;2022-12-18T02:16:05;9.07;;;5.40;;
6434;SDS011;3250;42.694;23.278;2022-12-18T02:18:34;8.05;;;5.22;;
6434;SDS011;3250;42.694;23.278;2022-12-18T02:21:18;9.45;;;5.85;;
6434;SDS011;3250;42.694;23.278;2022-12-18T02:26:47;9.23;;;5.45;;
6434;SDS011;3250;42.694;23.278;2022-12-18T02:29:26;7.40;;;5.38;;
6434;SDS011;3250;42.694;23.278;2022-12-18T02:32:14;11.30;;;7.00;;
6434;SDS011;3250;42.694;23.278;2022-12-18T02:34:42;7.07;;;5.38;;
6434;SDS011;3250;42.694;23.278;2022-12-18T02:37:10;9.20;;;5.57;;
6434;SDS011;3250;42.694;23.278;2022-12-18T02:39:41;8.97;;;4.77;;
6434;SDS011;3250;42.694;23.278;2022-12-18T02:42:08;8.05;;;5.40;;
6434;SDS011;3250;42.694;23.278;2022-12-18T02:44:35;10.30;;;5.32;;
6434;SDS011;3250;42.694;23.278;2022-12-18T02:47:11;8.13;;;5.22;;
6434;SDS011;3250;42.694;23.278;2022-12-18T02:54:56;7.30;;;5.03;;
6434;SDS011;3250;42.694;23.278;2022-12-18T02:57:40;9.75;;;5.90;;
6434;SDS011;3250;42.694;23.278;2022-12-18T03:02:50;9.07;;;6.65;;
6434;SDS011;3250;42.694;23.278;2022-12-18T03:05:24;9.23;;;6.50;;
6434;SDS011;3250;42.694;23.278;2022-12-18T03:07:57;9.23;;;5.83;;
6434;SDS011;3250;42.694;23.278;2022-12-18T03:10:27;8.43;;;5.30;;
6434;SDS011;3250;42.694;23.278;2022-12-18T03:13:03;8.65;;;5.63;;
6434;SDS011;3250;42.694;23.278;2022-12-18T03:15:35;8.32;;;5.32;;
6434;SDS011;3250;42.694;23.278;2022-12-18T03:18:05;7.90;;;4.97;;
6434;SDS011;3250;42.694;23.278;2022-12-18T03:20:35;9.18;;;6.10;;
6434;SDS011;3250;42.694;23.278;2022-12-18T03:23:06;8.83;;;5.60;;
6434;SDS011;3250;42.694;23.278;2022-12-18T03:25:35;8.67;;;5.43;;
6434;SDS011;3250;42.694;23.278;2022-12-18T03:28:06;8.37;;;5.23;;
6434;SDS011;3250;42.694;23.278;2022-12-18T03:30:35;9.07;;;5.60;;
6434;SDS011;3250;42.694;23.278;2022-12-18T03:35:49;9.00;;;4.83;;
6434;SDS011;3250;42.694;23.278;2022-12-18T03:38:14;9.73;;;4.50;;
6434;SDS011;3250;42.694;23.278;2022-12-18T03:40:59;7.13;;;4.60;;
6434;SDS011;3250;42.694;23.278;2022-12-18T03:43:52;10.13;;;5.13;;
6434;SDS011;3250;42.694;23.278;2022-12-18T03:47:04;8.68;;;5.10;;
6434;SDS011;3250;42.694;23.278;2022-12-18T03:49:23;9.27;;;5.35;;
6434;SDS011;3250;42.694;23.278;2022-12-18T03:52:03;8.10;;;4.72;;
6434;SDS011;3250;42.694;23.278;2022-12-18T03:54:34;7.80;;;4.47;;
6434;SDS011;3250;42.694;23.278;2022-12-18T03:57:05;8.82;;;4.95;;
6434;SDS011;3250;42.694;23.278;2022-12-18T03:59:36;8.32;;;5.13;;
6434;SDS011;3250;42.694;23.278;2022-12-18T04:02:03;8.55;;;5.43;;
6434;SDS011;3250;42.694;23.278;2022-12-18T04:04:31;10.45;;;5.75;;
6434;SDS011;3250;42.694;23.278;2022-12-18T04:06:58;9.27;;;5.97;;
6434;SDS011;3250;42.694;23.278;2022-12-18T04:09:24;8.55;;;5.45;;
6434;SDS011;3250;42.694;23.278;2022-12-18T04:11:51;8.40;;;5.75;;
6434;SDS011;3250;42.694;23.278;2022-12-18T04:14:16;8.33;;;5.97;;
6434;SDS011;3250;42.694;23.278;2022-12-18T04:16:42;12.33;;;6.90;;
6434;SDS011;3250;42.694;23.278;2022-12-18T04:19:07;10.97;;;6.67;;
6434;SDS011;3250;42.694;23.278;2022-12-18T04:21:33;12.30;;;7.30;;
6434;SDS011;3250;42.694;23.278;2022-12-18T04:23:58;12.47;;;7.37;;
6434;SDS011;3250;42.694;23.278;2022-12-18T04:26:24;9.93;;;6.50;;
6434;SDS011;3250;42.694;23.278;2022-12-18T04:28:49;10.15;;;6.30;;
6434;SDS011;3250;42.694;23.278;2022-12-18T04:31:14;10.20;;;5.77;;
6434;SDS011;3250;42.694;23.278;2022-12-18T04:33:40;10.23;;;6.50;;
6434;SDS011;3250;42.694;23.278;2022-12-18T04:36:05;10.60;;;6.87;;
6434;SDS011;3250;42.694;23.278;2022-12-18T04:38:31;9.70;;;6.45;;
6434;SDS011;3250;42.694;23.278;2022-12-18T04:40:57;9.40;;;6.40;;
6434;SDS011;3250;42.694;23.278;2022-12-18T04:43:23;10.60;;;6.43;;
6434;SDS011;3250;42.694;23.278;2022-12-18T04:45:48;11.77;;;7.13;;
6434;SDS011;3250;42.694;23.278;2022-12-18T04:48:13;13.07;;;7.57;;
6434;SDS011;3250;42.694;23.278;2022-12-18T04:50:39;11.83;;;7.00;;
6434;SDS011;3250;42.694;23.278;2022-12-18T04:53:04;13.77;;;8.17;;
6434;SDS011;3250;42.694;23.278;2022-12-18T04:55:30;12.27;;;7.47;;
6434;SDS011;3250;42.694;23.278;2022-12-18T04:57:55;13.00;;;7.90;;
6434;SDS011;3250;42.694;23.278;2022-12-18T05:00:21;12.13;;;7.60;;
6434;SDS011;3250;42.694;23.278;2022-12-18T05:02:47;14.70;;;7.50;;
6434;SDS011;3250;42.694;23.278;2022-12-18T05:05:12;13.33;;;7.83;;
6434;SDS011;3250;42.694;23.278;2022-12-18T05:07:38;19.27;;;10.15;;
6434;SDS011;3250;42.694;23.278;2022-12-18T05:10:07;16.92;;;8.90;;
6434;SDS011;3250;42.694;23.278;2022-12-18T05:12:33;16.48;;;8.25;;
6434;SDS011;3250;42.694;23.278;2022-12-18T05:14:58;13.00;;;8.43;;
6434;SDS011;3250;42.694;23.278;2022-12-18T05:17:23;16.43;;;9.00;;
6434;SDS011;3250;42.694;23.278;2022-12-18T05:19:49;17.43;;;9.17;;
6434;SDS011;3250;42.694;23.278;2022-12-18T05:22:14;16.25;;;10.20;;
6434;SDS011;3250;42.694;23.278;2022-12-18T05:24:40;15.27;;;9.57;;
6434;SDS011;3250;42.694;23.278;2022-12-18T05:27:05;16.50;;;9.60;;
6434;SDS011;3250;42.694;23.278;2022-12-18T05:29:31;12.83;;;8.03;;
6434;SDS011;3250;42.694;23.278;2022-12-18T05:31:56;18.80;;;9.73;;
6434;SDS011;3250;42.694;23.278;2022-12-18T05:34:21;14.97;;;8.87;;
6434;SDS011;3250;42.694;23.278;2022-12-18T05:36:47;13.83;;;8.43;;
6434;SDS011;3250;42.694;23.278;2022-12-18T05:39:12;14.33;;;9.20;;
6434;SDS011;3250;42.694;23.278;2022-12-18T05:41:38;16.40;;;8.77;;
6434;SDS011;3250;42.694;23.278;2022-12-18T05:44:03;14.87;;;8.53;;
6434;SDS011;3250;42.694;23.278;2022-12-18T05:46:28;15.50;;;8.53;;
6434;SDS011;3250;42.694;23.278;2022-12-18T05:48:54;16.83;;;10.00;;
6434;SDS011;3250;42.694;23.278;2022-12-18T05:51:20;17.17;;;8.70;;
6434;SDS011;3250;42.694;23.278;2022-12-18T05:53:46;19.08;;;10.95;;
6434;SDS011;3250;42.694;23.278;2022-12-18T05:56:17;19.50;;;11.10;;
6434;SDS011;3250;42.694;23.278;2022-12-18T05:58:44;17.02;;;9.93;;
6434;SDS011;3250;42.694;23.278;2022-12-18T06:01:11;20.60;;;11.23;;
6434;SDS011;3250;42.694;23.278;2022-12-18T06:03:38;18.45;;;10.38;;
6434;SDS011;3250;42.694;23.278;2022-12-18T06:06:04;15.80;;;10.00;;
6434;SDS011;3250;42.694;23.278;2022-12-18T06:08:37;16.17;;;10.32;;
6434;SDS011;3250;42.694;23.278;2022-12-18T06:11:02;17.40;;;10.40;;
6434;SDS011;3250;42.694;23.278;2022-12-18T06:13:28;17.70;;;10.33;;
6434;SDS011;3250;42.694;23.278;2022-12-18T06:15:53;20.93;;;9.23;;
6434;SDS011;3250;42.694;23.278;2022-12-18T06:18:18;19.05;;;10.30;;
6434;SDS011;3250;42.694;23.278;2022-12-18T06:20:44;19.20;;;10.80;;
6434;SDS011;3250;42.694;23.278;2022-12-18T06:23:09;23.40;;;12.70;;
6434;SDS011;3250;42.694;23.278;2022-12-18T06:25:36;23.80;;;13.17;;
6434;SDS011;3250;42.694;23.278;2022-12-18T06:28:03;19.73;;;12.00;;
6434;SDS011;3250;42.694;23.278;2022-12-18T06:30:28;18.38;;;10.75;;
6434;SDS011;3250;42.694;23.278;2022-12-18T06:32:53;18.93;;;10.47;;
6434;SDS011;3250;42.694;23.278;2022-12-18T06:35:19;21.95;;;12.32;;
6434;SDS011;3250;42.694;23.278;2022-12-18T06:37:44;23.00;;;13.57;;
6434;SDS011;3250;42.694;23.278;2022-12-18T06:40:10;21.80;;;12.27;;
6434;SDS011;3250;42.694;23.278;2022-12-18T06:42:35;17.47;;;10.10;;
6434;SDS011;3250;42.694;23.278;2022-12-18T06:45:02;20.47;;;12.07;;
6434;SDS011;3250;42.694;23.278;2022-12-18T06:47:27;16.97;;;9.43;;
6434;SDS011;3250;42.694;23.278;2022-12-18T06:49:53;17.57;;;10.30;;
6434;SDS011;3250;42.694;23.278;2022-12-18T06:52:18;19.30;;;11.83;;
6434;SDS011;3250;42.694;23.278;2022-12-18T06:54:43;18.73;;;10.93;;
6434;SDS011;3250;42.694;23.278;2022-12-18T06:57:09;18.13;;;10.63;;
6434;SDS011;3250;42.694;23.278;2022-12-18T06:59:34;20.17;;;10.23;;
6434;SDS011;3250;42.694;23.278;2022-12-18T07:02:00;18.53;;;9.73;;
6434;SDS011;3250;42.694;23.278;2022-12-18T07:04:28;15.07;;;8.90;;
6434;SDS011;3250;42.694;23.278;2022-12-18T07:06:55;19.90;;;11.50;;
6434;SDS011;3250;42.694;23.278;2022-12-18T07:09:20;18.93;;;9.23;;
6434;SDS011;3250;42.694;23.278;2022-12-18T07:11:46;16.67;;;9.83;;
6434;SDS011;3250;42.694;23.278;2022-12-18T07:14:11;17.20;;;10.05;;
6434;SDS011;3250;42.694;23.278;2022-12-18T07:16:36;17.37;;;9.90;;
6434;SDS011;3250;42.694;23.278;2022-12-18T07:19:02;18.27;;;10.60;;
6434;SDS011;3250;42.694;23.278;2022-12-18T07:21:27;19.70;;;10.50;;
6434;SDS011;3250;42.694;23.278;2022-12-18T07:23:53;20.37;;;11.47;;
6434;SDS011;3250;42.694;23.278;2022-12-18T07:26:19;21.03;;;11.73;;
6434;SDS011;3250;42.694;23.278;2022-12-18T07:28:46;22.27;;;12.10;;
6434;SDS011;3250;42.694;23.278;2022-12-18T07:31:14;19.57;;;10.83;;
6434;SDS011;3250;42.694;23.278;2022-12-18T07:33:42;24.00;;;12.37;;
6434;SDS011;3250;42.694;23.278;2022-12-18T07:36:08;22.20;;;12.38;;
6434;SDS011;3250;42.694;23.278;2022-12-18T07:38:35;23.80;;;12.93;;
6434;SDS011;3250;42.694;23.278;2022-12-18T07:41:01;22.58;;;12.30;;
6434;SDS011;3250;42.694;23.278;2022-12-18T07:43:27;24.52;;;14.55;;
6434;SDS011;3250;42.694;23.278;2022-12-18T07:45:52;24.83;;;13.93;;
6434;SDS011;3250;42.694;23.278;2022-12-18T07:48:17;26.27;;;15.10;;
6434;SDS011;3250;42.694;23.278;2022-12-18T07:50:43;25.47;;;15.13;;
6434;SDS011;3250;42.694;23.278;2022-12-18T07:53:08;25.27;;;14.37;;
6434;SDS011;3250;42.694;23.278;2022-12-18T07:55:33;26.87;;;14.07;;
6434;SDS011;3250;42.694;23.278;2022-12-18T07:58:02;24.60;;;13.60;;
6434;SDS011;3250;42.694;23.278;2022-12-18T08:00:29;26.23;;;12.57;;
6434;SDS011;3250;42.694;23.278;2022-12-18T08:02:55;22.58;;;12.30;;
6434;SDS011;3250;42.694;23.278;2022-12-18T08:05:21;28.35;;;16.00;;
6434;SDS011;3250;42.694;23.278;2022-12-18T08:07:47;29.90;;;15.27;;
6434;SDS011;3250;42.694;23.278;2022-12-18T08:10:12;24.03;;;13.50;;
6434;SDS011;3250;42.694;23.278;2022-12-18T08:12:38;26.33;;;15.02;;
6434;SDS011;3250;42.694;23.278;2022-12-18T08:15:04;24.23;;;13.38;;
6434;SDS011;3250;42.694;23.278;2022-12-18T08:17:30;28.60;;;13.10;;
6434;SDS011;3250;42.694;23.278;2022-12-18T08:19:56;25.67;;;14.33;;
6434;SDS011;3250;42.694;23.278;2022-12-18T08:22:21;26.07;;;13.83;;
6434;SDS011;3250;42.694;23.278;2022-12-18T08:24:47;23.70;;;13.15;;
6434;SDS011;3250;42.694;23.278;2022-12-18T08:27:12;25.30;;;12.83;;
6434;SDS011;3250;42.694;23.278;2022-12-18T08:29:37;24.53;;;11.57;;
6434;SDS011;3250;42.694;23.278;2022-12-18T08:32:03;21.73;;;10.50;;
6434;SDS011;3250;42.694;23.278;2022-12-18T08:34:29;26.73;;;13.63;;
6434;SDS011;3250;42.694;23.278;2022-12-18T08:36:54;26.63;;;12.77;;
6434;SDS011;3250;42.694;23.278;2022-12-18T08:39:20;26.10;;;11.80;;
6434;SDS011;3250;42.694;23.278;2022-12-18T08:41:46;25.00;;;13.07;;
6434;SDS011;3250;42.694;23.278;2022-12-18T08:44:31;26.17;;;14.88;;
6434;SDS011;3250;42.694;23.278;2022-12-18T08:47:03;22.77;;;12.30;;
6434;SDS011;3250;42.694;23.278;2022-12-18T08:49:29;26.27;;;11.93;;
6434;SDS011;3250;42.694;23.278;2022-12-18T08:51:55;18.13;;;9.97;;
6434;SDS011;3250;42.694;23.278;2022-12-18T08:54:22;21.63;;;11.83;;
6434;SDS011;3250;42.694;23.278;2022-12-18T08:56:48;23.13;;;11.47;;
6434;SDS011;3250;42.694;23.278;2022-12-18T08:59:14;26.00;;;12.60;;
6434;SDS011;3250;42.694;23.278;2022-12-18T09:01:40;19.47;;;10.67;;
6434;SDS011;3250;42.694;23.278;2022-12-18T09:04:07;25.10;;;10.83;;
6434;SDS011;3250;42.694;23.278;2022-12-18T09:06:32;21.07;;;10.80;;
6434;SDS011;3250;42.694;23.278;2022-12-18T09:08:58;23.83;;;11.57;;
6434;SDS011;3250;42.694;23.278;2022-12-18T09:11:25;23.97;;;11.73;;
6434;SDS011;3250;42.694;23.278;2022-12-18T09:13:52;27.10;;;11.70;;
6434;SDS011;3250;42.694;23.278;2022-12-18T09:16:18;27.37;;;11.50;;
6434;SDS011;3250;42.694;23.278;2022-12-18T09:18:45;24.67;;;12.03;;
6434;SDS011;3250;42.694;23.278;2022-12-18T09:21:12;35.63;;;15.30;;
6434;SDS011;3250;42.694;23.278;2022-12-18T09:23:40;28.07;;;12.03;;
6434;SDS011;3250;42.694;23.278;2022-12-18T09:26:06;17.87;;;9.87;;
6434;SDS011;3250;42.694;23.278;2022-12-18T09:28:32;19.40;;;9.83;;
6434;SDS011;3250;42.694;23.278;2022-12-18T09:30:57;20.60;;;10.30;;
6434;SDS011;3250;42.694;23.278;2022-12-18T09:33:23;19.77;;;10.10;;
6434;SDS011;3250;42.694;23.278;2022-12-18T09:35:48;22.43;;;11.70;;
6434;SDS011;3250;42.694;23.278;2022-12-18T09:38:16;23.00;;;11.73;;
6434;SDS011;3250;42.694;23.278;2022-12-18T09:40:47;21.83;;;11.07;;
6434;SDS011;3250;42.694;23.278;2022-12-18T09:43:22;26.97;;;12.30;;
6434;SDS011;3250;42.694;23.278;2022-12-18T09:46:01;21.63;;;10.67;;
6434;SDS011;3250;42.694;23.278;2022-12-18T09:48:38;18.63;;;10.23;;
6434;SDS011;3250;42.694;23.278;2022-12-18T09:51:12;20.83;;;10.53;;
6434;SDS011;3250;42.694;23.278;2022-12-18T09:53:38;19.40;;;11.30;;
6434;SDS011;3250;42.694;23.278;2022-12-18T09:56:06;21.10;;;11.27;;
6434;SDS011;3250;42.694;23.278;2022-12-18T09:58:46;19.90;;;10.73;;
6434;SDS011;3250;42.694;23.278;2022-12-18T10:01:23;23.23;;;10.50;;
6434;SDS011;3250;42.694;23.278;2022-12-18T10:03:49;18.83;;;11.63;;
6434;SDS011;3250;42.694;23.278;2022-12-18T10:06:21;23.47;;;10.90;;
6434;SDS011;3250;42.694;23.278;2022-12-18T10:09:12;23.43;;;10.97;;
6434;SDS011;3250;42.694;23.278;2022-12-18T10:16:47;20.10;;;10.13;;
6434;SDS011;3250;42.694;23.278;2022-12-18T10:24:41;28.20;;;13.03;;
6434;SDS011;3250;42.694;23.278;2022-12-18T10:27:15;23.23;;;11.63;;
6434;SDS011;3250;42.694;23.278;2022-12-18T10:29:42;19.37;;;9.80;;
6434;SDS011;3250;42.694;23.278;2022-12-18T10:32:13;21.10;;;10.63;;
6434;SDS011;3250;42.694;23.278;2022-12-18T10:34:44;22.13;;;10.43;;
6434;SDS011;3250;42.694;23.278;2022-12-18T10:37:12;26.40;;;13.27;;
6434;SDS011;3250;42.694;23.278;2022-12-18T10:39:42;18.37;;;10.50;;
6434;SDS011;3250;42.694;23.278;2022-12-18T10:42:25;19.93;;;10.40;;
6434;SDS011;3250;42.694;23.278;2022-12-18T10:45:00;23.50;;;11.20;;
6434;SDS011;3250;42.694;23.278;2022-12-18T10:47:28;20.53;;;11.60;;
6434;SDS011;3250;42.694;23.278;2022-12-18T10:49:55;21.37;;;10.90;;
6434;SDS011;3250;42.694;23.278;2022-12-18T10:52:22;22.47;;;11.87;;
6434;SDS011;3250;42.694;23.278;2022-12-18T10:54:51;24.90;;;11.90;;
6434;SDS011;3250;42.694;23.278;2022-12-18T11:00:23;26.63;;;12.83;;
6434;SDS011;3250;42.694;23.278;2022-12-18T11:02:53;18.97;;;10.37;;
6434;SDS011;3250;42.694;23.278;2022-12-18T11:07:49;19.50;;;9.73;;
6434;SDS011;3250;42.694;23.278;2022-12-18T11:10:20;18.63;;;9.73;;
6434;SDS011;3250;42.694;23.278;2022-12-18T11:12:47;19.40;;;10.27;;
6434;SDS011;3250;42.694;23.278;2022-12-18T11:15:19;19.53;;;10.23;;
6434;SDS011;3250;42.694;23.278;2022-12-18T11:17:47;20.30;;;9.57;;
6434;SDS011;3250;42.694;23.278;2022-12-18T11:23:01;18.43;;;10.13;;
6434;SDS011;3250;42.694;23.278;2022-12-18T11:25:29;21.03;;;10.63;;
6434;SDS011;3250;42.694;23.278;2022-12-18T11:27:59;26.20;;;12.23;;
6434;SDS011;3250;42.694;23.278;2022-12-18T11:30:31;20.20;;;10.93;;
6434;SDS011;3250;42.694;23.278;2022-12-18T11:38:23;24.77;;;13.63;;
6434;SDS011;3250;42.694;23.278;2022-12-18T11:41:05;25.27;;;12.90;;
6434;SDS011;3250;42.694;23.278;2022-12-18T11:43:48;24.37;;;12.20;;
6434;SDS011;3250;42.694;23.278;2022-12-18T11:46:19;23.30;;;11.87;;
6434;SDS011;3250;42.694;23.278;2022-12-18T11:52:03;21.40;;;10.30;;
6434;SDS011;3250;42.694;23.278;2022-12-18T11:54:36;21.00;;;11.27;;
6434;SDS011;3250;42.694;23.278;2022-12-18T11:57:05;21.47;;;9.93;;
6434;SDS011;3250;42.694;23.278;2022-12-18T12:05:16;27.17;;;12.93;;
6434;SDS011;3250;42.694;23.278;2022-12-18T12:11:10;24.87;;;12.03;;
6434;SDS011;3250;42.694;23.278;2022-12-18T12:21:46;29.07;;;14.43;;
6434;SDS011;3250;42.694;23.278;2022-12-18T12:24:26;32.93;;;14.30;;
6434;SDS011;3250;42.694;23.278;2022-12-18T12:39:50;28.83;;;12.90;;
6434;SDS011;3250;42.694;23.278;2022-12-18T12:42:19;23.70;;;12.10;;
6434;SDS011;3250;42.694;23.278;2022-12-18T12:45:13;20.67;;;10.80;;
6434;SDS011;3250;42.694;23.278;2022-12-18T12:47:45;23.50;;;11.97;;
6434;SDS011;3250;42.694;23.278;2022-12-18T12:50:15;23.70;;;11.73;;
6434;SDS011;3250;42.694;23.278;2022-12-18T12:52:45;23.13;;;11.60;;
6434;SDS011;3250;42.694;23.278;2022-12-18T12:55:16;27.27;;;13.53;;
6434;SDS011;3250;42.694;23.278;2022-12-18T12:57:48;30.27;;;13.83;;
6434;SDS011;3250;42.694;23.278;2022-12-18T13:00:23;29.50;;;12.63;;
6434;SDS011;3250;42.694;23.278;2022-12-18T13:02:58;31.20;;;13.03;;
6434;SDS011;3250;42.694;23.278;2022-12-18T13:05:30;21.87;;;10.97;;
6434;SDS011;3250;42.694;23.278;2022-12-18T13:08:10;25.07;;;11.93;;
6434;SDS011;3250;42.694;23.278;2022-12-18T13:10:46;25.43;;;12.17;;
6434;SDS011;3250;42.694;23.278;2022-12-18T13:13:15;24.80;;;12.40;;
6434;SDS011;3250;42.694;23.278;2022-12-18T13:15:45;29.38;;;15.43;;
6434;SDS011;3250;42.694;23.278;2022-12-18T13:20:44;22.50;;;12.38;;
6434;SDS011;3250;42.694;23.278;2022-12-18T13:34:23;21.17;;;11.82;;
6434;SDS011;3250;42.694;23.278;2022-12-18T13:36:50;23.73;;;12.70;;
6434;SDS011;3250;42.694;23.278;2022-12-18T13:42:21;23.08;;;12.82;;
6434;SDS011;3250;42.694;23.278;2022-12-18T13:44:55;25.10;;;13.83;;
6434;SDS011;3250;42.694;23.278;2022-12-18T13:47:54;25.77;;;12.77;;
6434;SDS011;3250;42.694;23.278;2022-12-18T13:50:23;29.35;;;14.40;;
6434;SDS011;3250;42.694;23.278;2022-12-18T13:52:50;26.50;;;14.03;;
6434;SDS011;3250;42.694;23.278;2022-12-18T13:55:18;26.63;;;13.52;;
6434;SDS011;3250;42.694;23.278;2022-12-18T13:57:45;23.35;;;13.05;;
6434;SDS011;3250;42.694;23.278;2022-12-18T14:00:27;23.90;;;11.63;;
6434;SDS011;3250;42.694;23.278;2022-12-18T14:02:55;19.77;;;10.65;;
6434;SDS011;3250;42.694;23.278;2022-12-18T14:05:25;25.20;;;13.93;;
6434;SDS011;3250;42.694;23.278;2022-12-18T14:07:53;28.08;;;14.52;;
6434;SDS011;3250;42.694;23.278;2022-12-18T14:10:20;26.73;;;14.30;;
6434;SDS011;3250;42.694;23.278;2022-12-18T14:12:47;29.33;;;13.75;;
6434;SDS011;3250;42.694;23.278;2022-12-18T14:20:22;27.47;;;11.03;;
6434;SDS011;3250;42.694;23.278;2022-12-18T14:22:50;23.85;;;11.02;;
6434;SDS011;3250;42.694;23.278;2022-12-18T14:25:17;26.40;;;13.88;;
6434;SDS011;3250;42.694;23.278;2022-12-18T14:27:50;25.77;;;14.00;;
6434;SDS011;3250;42.694;23.278;2022-12-18T14:30:24;29.00;;;15.38;;
6434;SDS011;3250;42.694;23.278;2022-12-18T14:35:42;25.77;;;12.88;;
6434;SDS011;3250;42.694;23.278;2022-12-18T14:40:47;25.80;;;13.57;;
6434;SDS011;3250;42.694;23.278;2022-12-18T14:43:16;27.23;;;13.25;;
6434;SDS011;3250;42.694;23.278;2022-12-18T14:45:42;24.97;;;12.33;;
6434;SDS011;3250;42.694;23.278;2022-12-18T14:50:42;18.47;;;10.50;;
6434;SDS011;3250;42.694;23.278;2022-12-18T14:53:20;22.40;;;10.80;;
6434;SDS011;3250;42.694;23.278;2022-12-18T14:55:57;17.83;;;10.63;;
6434;SDS011;3250;42.694;23.278;2022-12-18T14:58:23;17.87;;;10.27;;
6434;SDS011;3250;42.694;23.278;2022-12-18T15:00:48;23.03;;;10.27;;
6434;SDS011;3250;42.694;23.278;2022-12-18T15:03:17;21.13;;;9.70;;
6434;SDS011;3250;42.694;23.278;2022-12-18T15:05:45;23.15;;;10.10;;
6434;SDS011;3250;42.694;23.278;2022-12-18T15:08:24;20.07;;;10.87;;
6434;SDS011;3250;42.694;23.278;2022-12-18T15:10:54;17.43;;;8.73;;
6434;SDS011;3250;42.694;23.278;2022-12-18T15:13:21;18.77;;;9.80;;
6434;SDS011;3250;42.694;23.278;2022-12-18T15:15:48;18.00;;;10.40;;
6434;SDS011;3250;42.694;23.278;2022-12-18T15:18:15;19.30;;;8.65;;
6434;SDS011;3250;42.694;23.278;2022-12-18T15:20:54;17.38;;;9.20;;
6434;SDS011;3250;42.694;23.278;2022-12-18T15:26:02;21.47;;;10.43;;
6434;SDS011;3250;42.694;23.278;2022-12-18T15:28:43;24.10;;;10.20;;
6434;SDS011;3250;42.694;23.278;2022-12-18T15:36:17;19.98;;;10.77;;
6434;SDS011;3250;42.694;23.278;2022-12-18T15:38:47;18.48;;;10.07;;
6434;SDS011;3250;42.694;23.278;2022-12-18T15:41:13;18.20;;;10.17;;
6434;SDS011;3250;42.694;23.278;2022-12-18T15:43:41;17.80;;;9.70;;
6434;SDS011;3250;42.694;23.278;2022-12-18T15:46:08;19.13;;;10.02;;
6434;SDS011;3250;42.694;23.278;2022-12-18T15:48:43;23.77;;;9.83;;
6434;SDS011;3250;42.694;23.278;2022-12-18T15:53:56;24.40;;;12.07;;
6434;SDS011;3250;42.694;23.278;2022-12-18T15:56:24;25.27;;;12.47;;
6434;SDS011;3250;42.694;23.278;2022-12-18T15:59:13;22.58;;;11.90;;
6434;SDS011;3250;42.694;23.278;2022-12-18T16:01:39;27.98;;;13.98;;
6434;SDS011;3250;42.694;23.278;2022-12-18T16:04:06;25.80;;;13.70;;
6434;SDS011;3250;42.694;23.278;2022-12-18T16:06:36;28.73;;;15.00;;
6434;SDS011;3250;42.694;23.278;2022-12-18T16:09:02;27.17;;;14.17;;
6434;SDS011;3250;42.694;23.278;2022-12-18T16:11:28;26.37;;;14.13;;
6434;SDS011;3250;42.694;23.278;2022-12-18T16:16:51;25.87;;;13.07;;
6434;SDS011;3250;42.694;23.278;2022-12-18T16:19:18;30.02;;;15.05;;
6434;SDS011;3250;42.694;23.278;2022-12-18T16:21:46;26.57;;;13.20;;
6434;SDS011;3250;42.694;23.278;2022-12-18T16:24:16;33.83;;;15.67;;
6434;SDS011;3250;42.694;23.278;2022-12-18T16:26:42;30.57;;;15.13;;
6434;SDS011;3250;42.694;23.278;2022-12-18T16:29:08;30.40;;;14.87;;
6434;SDS011;3250;42.694;23.278;2022-12-18T16:31:35;33.43;;;16.13;;
6434;SDS011;3250;42.694;23.278;2022-12-18T16:34:14;27.75;;;15.38;;
6434;SDS011;3250;42.694;23.278;2022-12-18T16:36:47;29.17;;;15.50;;
6434;SDS011;3250;42.694;23.278;2022-12-18T16:39:16;33.03;;;16.65;;
6434;SDS011;3250;42.694;23.278;2022-12-18T16:41:41;25.20;;;13.63;;
6434;SDS011;3250;42.694;23.278;2022-12-18T16:44:07;27.87;;;13.97;;
6434;SDS011;3250;42.694;23.278;2022-12-18T16:46:33;29.53;;;13.47;;
6434;SDS011;3250;42.694;23.278;2022-12-18T16:48:59;31.67;;;15.45;;
6434;SDS011;3250;42.694;23.278;2022-12-18T16:51:25;29.60;;;15.40;;
6434;SDS011;3250;42.694;23.278;2022-12-18T16:53:52;31.43;;;16.10;;